Terminal Aerodrome Forecast
Issued by NWS

Home | Current Version | Previous Version | Text Only | Print | Product List | Glossary Off
Versions: 1 2 3 4 5 6 7 8 9 10 11 12 13 14 15 16 17 18 19

000
FTUS43 KMPX 280520
TAFAXN
TAF
KAXN 280520Z 2806/2906 15011KT P6SM OVC008
     FM281000 14011KT 4SM BR OVC007
     FM282000 VRB04KT P6SM OVC015
     FM290200 32008KT P6SM OVC008
     FM290400 32015G23KT P6SM OVC012=

USA.gov is the U.S. government's official web portal to all federal, state and local government web resources and services.